sensor_id;sensor_type;location;lat;lon;timestamp;temperature;humidity
5258;DHT22;2651;51.594;9.928;2022-08-05T00:00:50;23.90;99.90
5258;DHT22;2651;51.594;9.928;2022-08-05T00:01:52;23.70;99.90
5258;DHT22;2651;51.594;9.928;2022-08-05T00:02:54;23.60;99.90
5258;DHT22;2651;51.594;9.928;2022-08-05T00:03:55;23.60;99.90
5258;DHT22;2651;51.594;9.928;2022-08-05T00:04:58;23.60;99.90
5258;DHT22;2651;51.594;9.928;2022-08-05T00:05:59;23.60;99.90
5258;DHT22;2651;51.594;9.928;2022-08-05T00:07:22;23.60;99.90
5258;DHT22;2651;51.594;9.928;2022-08-05T00:08:44;23.50;99.90
5258;DHT22;2651;51.594;9.928;2022-08-05T00:09:47;23.40;99.90
5258;DHT22;2651;51.594;9.928;2022-08-05T00:10:49;23.40;99.90
5258;DHT22;2651;51.594;9.928;2022-08-05T00:11:51;23.50;99.90
5258;DHT22;2651;51.594;9.928;2022-08-05T00:13:00;23.40;99.90
5258;DHT22;2651;51.594;9.928;2022-08-05T00:14:03;23.40;99.90
5258;DHT22;2651;51.594;9.928;2022-08-05T00:15:17;23.40;99.90
5258;DHT22;2651;51.594;9.928;2022-08-05T00:16:38;23.40;99.90
5258;DHT22;2651;51.594;9.928;2022-08-05T00:17:54;23.50;99.90
5258;DHT22;2651;51.594;9.928;2022-08-05T00:18:56;23.40;99.90
5258;DHT22;2651;51.594;9.928;2022-08-05T00:19:57;23.40;99.90
5258;DHT22;2651;51.594;9.928;2022-08-05T00:21:04;23.40;99.90
5258;DHT22;2651;51.594;9.928;2022-08-05T00:22:08;23.40;99.90
5258;DHT22;2651;51.594;9.928;2022-08-05T00:23:12;23.50;99.90
5258;DHT22;2651;51.594;9.928;2022-08-05T00:24:13;23.50;99.90
5258;DHT22;2651;51.594;9.928;2022-08-05T00:25:24;23.50;99.90
5258;DHT22;2651;51.594;9.928;2022-08-05T00:26:26;23.50;99.90
5258;DHT22;2651;51.594;9.928;2022-08-05T00:27:27;23.60;99.90
5258;DHT22;2651;51.594;9.928;2022-08-05T00:28:37;23.50;99.90
5258;DHT22;2651;51.594;9.928;2022-08-05T00:29:40;23.50;99.90
5258;DHT22;2651;51.594;9.928;2022-08-05T00:30:42;23.50;99.90
5258;DHT22;2651;51.594;9.928;2022-08-05T00:31:44;23.50;99.90
5258;DHT22;2651;51.594;9.928;2022-08-05T00:33:06;23.60;99.90
5258;DHT22;2651;51.594;9.928;2022-08-05T00:34:28;23.60;99.90
5258;DHT22;2651;51.594;9.928;2022-08-05T00:35:49;23.60;99.90
5258;DHT22;2651;51.594;9.928;2022-08-05T00:37:11;23.60;99.90
5258;DHT22;2651;51.594;9.928;2022-08-05T00:38:14;23.50;99.90
5258;DHT22;2651;51.594;9.928;2022-08-05T00:39:29;23.50;99.90
5258;DHT22;2651;51.594;9.928;2022-08-05T00:40:51;23.60;99.90
5258;DHT22;2651;51.594;9.928;2022-08-05T00:41:53;23.60;99.90
5258;DHT22;2651;51.594;9.928;2022-08-05T00:42:57;23.50;99.90
5258;DHT22;2651;51.594;9.928;2022-08-05T00:44:00;23.40;99.90
5258;DHT22;2651;51.594;9.928;2022-08-05T00:45:03;23.30;99.90
5258;DHT22;2651;51.594;9.928;2022-08-05T00:46:09;23.20;99.90
5258;DHT22;2651;51.594;9.928;2022-08-05T00:47:10;23.10;99.90
5258;DHT22;2651;51.594;9.928;2022-08-05T00:48:15;23.00;99.90
5258;DHT22;2651;51.594;9.928;2022-08-05T00:49:17;22.90;99.90
5258;DHT22;2651;51.594;9.928;2022-08-05T00:50:20;22.90;99.90
5258;DHT22;2651;51.594;9.928;2022-08-05T00:51:26;22.80;99.90
5258;DHT22;2651;51.594;9.928;2022-08-05T00:52:47;22.80;99.90
5258;DHT22;2651;51.594;9.928;2022-08-05T00:53:49;22.90;99.90
5258;DHT22;2651;51.594;9.928;2022-08-05T00:55:04;22.80;99.90
5258;DHT22;2651;51.594;9.928;2022-08-05T00:56:06;22.80;99.90
5258;DHT22;2651;51.594;9.928;2022-08-05T00:57:08;22.90;99.90
5258;DHT22;2651;51.594;9.928;2022-08-05T00:58:11;23.00;99.90
5258;DHT22;2651;51.594;9.928;2022-08-05T00:59:13;23.00;99.90
5258;DHT22;2651;51.594;9.928;2022-08-05T01:00:15;23.00;99.90
5258;DHT22;2651;51.594;9.928;2022-08-05T01:01:17;23.00;99.90
5258;DHT22;2651;51.594;9.928;2022-08-05T01:02:25;23.00;99.90
5258;DHT22;2651;51.594;9.928;2022-08-05T01:03:27;23.00;99.90
5258;DHT22;2651;51.594;9.928;2022-08-05T01:04:33;22.90;99.90
5258;DHT22;2651;51.594;9.928;2022-08-05T01:05:35;22.90;99.90
5258;DHT22;2651;51.594;9.928;2022-08-05T01:06:40;22.80;99.90
5258;DHT22;2651;51.594;9.928;2022-08-05T01:07:49;22.80;99.90
5258;DHT22;2651;51.594;9.928;2022-08-05T01:09:11;22.80;99.90
5258;DHT22;2651;51.594;9.928;2022-08-05T01:10:15;22.80;99.90
5258;DHT22;2651;51.594;9.928;2022-08-05T01:11:25;22.80;99.90
5258;DHT22;2651;51.594;9.928;2022-08-05T01:12:38;22.90;99.90
5258;DHT22;2651;51.594;9.928;2022-08-05T01:14:13;22.90;99.90
5258;DHT22;2651;51.594;9.928;2022-08-05T01:15:33;23.00;99.90
5258;DHT22;2651;51.594;9.928;2022-08-05T01:16:53;23.00;99.90
5258;DHT22;2651;51.594;9.928;2022-08-05T01:18:02;23.00;99.90
5258;DHT22;2651;51.594;9.928;2022-08-05T01:20:50;23.00;99.90
5258;DHT22;2651;51.594;9.928;2022-08-05T01:25:23;23.10;99.90
5258;DHT22;2651;51.594;9.928;2022-08-05T01:28:12;23.10;99.90
5258;DHT22;2651;51.594;9.928;2022-08-05T01:29:20;23.00;99.90
5258;DHT22;2651;51.594;9.928;2022-08-05T01:30:28;23.10;99.90
5258;DHT22;2651;51.594;9.928;2022-08-05T01:31:42;23.10;99.90
5258;DHT22;2651;51.594;9.928;2022-08-05T01:32:47;23.00;99.90
5258;DHT22;2651;51.594;9.928;2022-08-05T01:34:08;22.90;99.90
5258;DHT22;2651;51.594;9.928;2022-08-05T01:35:15;22.80;99.90
5258;DHT22;2651;51.594;9.928;2022-08-05T01:36:45;22.80;99.90
5258;DHT22;2651;51.594;9.928;2022-08-05T01:37:53;22.80;99.90
5258;DHT22;2651;51.594;9.928;2022-08-05T01:38:56;22.80;99.90
5258;DHT22;2651;51.594;9.928;2022-08-05T01:40:04;22.70;99.90
5258;DHT22;2651;51.594;9.928;2022-08-05T01:41:07;22.60;99.90
5258;DHT22;2651;51.594;9.928;2022-08-05T01:42:12;22.60;99.90
5258;DHT22;2651;51.594;9.928;2022-08-05T01:43:16;22.70;99.90
5258;DHT22;2651;51.594;9.928;2022-08-05T01:44:25;22.70;99.90
5258;DHT22;2651;51.594;9.928;2022-08-05T01:45:36;22.70;99.90
5258;DHT22;2651;51.594;9.928;2022-08-05T01:46:44;22.60;99.90
5258;DHT22;2651;51.594;9.928;2022-08-05T01:47:48;22.60;99.90
5258;DHT22;2651;51.594;9.928;2022-08-05T01:48:56;22.50;99.90
5258;DHT22;2651;51.594;9.928;2022-08-05T01:50:04;22.40;99.90
5258;DHT22;2651;51.594;9.928;2022-08-05T01:51:08;22.30;99.90
5258;DHT22;2651;51.594;9.928;2022-08-05T01:52:14;22.30;99.90
5258;DHT22;2651;51.594;9.928;2022-08-05T01:53:19;22.30;99.90
5258;DHT22;2651;51.594;9.928;2022-08-05T01:54:51;22.30;99.90
5258;DHT22;2651;51.594;9.928;2022-08-05T01:55:57;22.40;99.90
5258;DHT22;2651;51.594;9.928;2022-08-05T01:57:05;22.40;99.90
5258;DHT22;2651;51.594;9.928;2022-08-05T01:58:30;22.40;99.90
5258;DHT22;2651;51.594;9.928;2022-08-05T01:59:47;22.40;99.90
5258;DHT22;2651;51.594;9.928;2022-08-05T02:00:51;22.50;99.90
5258;DHT22;2651;51.594;9.928;2022-08-05T02:01:55;22.40;99.90
5258;DHT22;2651;51.594;9.928;2022-08-05T02:04:35;22.40;99.90
5258;DHT22;2651;51.594;9.928;2022-08-05T02:06:06;22.40;99.90
5258;DHT22;2651;51.594;9.928;2022-08-05T02:07:30;22.30;99.90
5258;DHT22;2651;51.594;9.928;2022-08-05T02:08:34;22.30;99.90
5258;DHT22;2651;51.594;9.928;2022-08-05T02:09:55;22.20;99.90
5258;DHT22;2651;51.594;9.928;2022-08-05T02:11:04;22.30;99.90
5258;DHT22;2651;51.594;9.928;2022-08-05T02:12:32;22.30;99.90
5258;DHT22;2651;51.594;9.928;2022-08-05T02:13:46;22.30;99.90
5258;DHT22;2651;51.594;9.928;2022-08-05T02:16:11;22.30;99.90
5258;DHT22;2651;51.594;9.928;2022-08-05T02:17:44;22.30;99.90
5258;DHT22;2651;51.594;9.928;2022-08-05T02:21:15;22.10;99.90
5258;DHT22;2651;51.594;9.928;2022-08-05T02:22:27;22.00;99.90
5258;DHT22;2651;51.594;9.928;2022-08-05T02:23:32;21.80;99.90
5258;DHT22;2651;51.594;9.928;2022-08-05T02:24:40;21.70;99.90
5258;DHT22;2651;51.594;9.928;2022-08-05T02:25:52;21.70;99.90
5258;DHT22;2651;51.594;9.928;2022-08-05T02:27:00;21.70;99.90
5258;DHT22;2651;51.594;9.928;2022-08-05T02:28:12;21.70;99.90
5258;DHT22;2651;51.594;9.928;2022-08-05T02:29:29;21.80;99.90
5258;DHT22;2651;51.594;9.928;2022-08-05T02:30:59;21.80;99.90
5258;DHT22;2651;51.594;9.928;2022-08-05T02:32:03;21.80;99.90
5258;DHT22;2651;51.594;9.928;2022-08-05T02:33:09;21.80;99.90
5258;DHT22;2651;51.594;9.928;2022-08-05T02:34:15;21.80;99.90
5258;DHT22;2651;51.594;9.928;2022-08-05T02:35:21;21.80;99.90
5258;DHT22;2651;51.594;9.928;2022-08-05T02:36:35;21.90;99.90
5258;DHT22;2651;51.594;9.928;2022-08-05T02:37:41;21.90;99.90
5258;DHT22;2651;51.594;9.928;2022-08-05T02:38:48;21.90;99.90
5258;DHT22;2651;51.594;9.928;2022-08-05T02:39:54;21.90;99.90
5258;DHT22;2651;51.594;9.928;2022-08-05T02:40:57;21.90;99.90
5258;DHT22;2651;51.594;9.928;2022-08-05T02:42:07;21.90;99.90
5258;DHT22;2651;51.594;9.928;2022-08-05T02:43:26;22.00;99.90
5258;DHT22;2651;51.594;9.928;2022-08-05T02:44:31;22.00;99.90
5258;DHT22;2651;51.594;9.928;2022-08-05T02:45:35;22.00;99.90
5258;DHT22;2651;51.594;9.928;2022-08-05T02:46:55;22.00;99.90
5258;DHT22;2651;51.594;9.928;2022-08-05T02:48:01;21.80;99.90
5258;DHT22;2651;51.594;9.928;2022-08-05T02:49:15;21.70;99.90
5258;DHT22;2651;51.594;9.928;2022-08-05T02:50:17;21.60;99.90
5258;DHT22;2651;51.594;9.928;2022-08-05T02:51:21;21.60;99.90
5258;DHT22;2651;51.594;9.928;2022-08-05T02:52:44;21.50;99.90
5258;DHT22;2651;51.594;9.928;2022-08-05T02:53:47;21.60;99.90
5258;DHT22;2651;51.594;9.928;2022-08-05T02:54:56;21.50;99.90
5258;DHT22;2651;51.594;9.928;2022-08-05T02:56:03;21.60;99.90
5258;DHT22;2651;51.594;9.928;2022-08-05T02:57:12;21.50;99.90
5258;DHT22;2651;51.594;9.928;2022-08-05T02:58:37;21.60;99.90
5258;DHT22;2651;51.594;9.928;2022-08-05T02:59:45;21.50;99.90
5258;DHT22;2651;51.594;9.928;2022-08-05T03:00:54;21.40;99.90
5258;DHT22;2651;51.594;9.928;2022-08-05T03:01:57;21.30;99.90
5258;DHT22;2651;51.594;9.928;2022-08-05T03:03:02;21.30;99.90
5258;DHT22;2651;51.594;9.928;2022-08-05T03:04:13;21.30;99.90
5258;DHT22;2651;51.594;9.928;2022-08-05T03:05:17;21.30;99.90
5258;DHT22;2651;51.594;9.928;2022-08-05T03:06:41;21.30;99.90
5258;DHT22;2651;51.594;9.928;2022-08-05T03:08:00;21.30;99.90
5258;DHT22;2651;51.594;9.928;2022-08-05T03:09:13;21.30;99.90
5258;DHT22;2651;51.594;9.928;2022-08-05T03:10:18;21.30;99.90
5258;DHT22;2651;51.594;9.928;2022-08-05T03:11:26;21.40;99.90
5258;DHT22;2651;51.594;9.928;2022-08-05T03:12:48;21.20;99.90
5258;DHT22;2651;51.594;9.928;2022-08-05T03:13:53;21.20;99.90
5258;DHT22;2651;51.594;9.928;2022-08-05T03:15:06;21.10;99.90
5258;DHT22;2651;51.594;9.928;2022-08-05T03:16:09;21.10;99.90
5258;DHT22;2651;51.594;9.928;2022-08-05T03:17:16;21.10;99.90
5258;DHT22;2651;51.594;9.928;2022-08-05T03:18:20;21.10;99.90
5258;DHT22;2651;51.594;9.928;2022-08-05T03:19:30;21.10;99.90
5258;DHT22;2651;51.594;9.928;2022-08-05T03:20:36;21.10;99.90
5258;DHT22;2651;51.594;9.928;2022-08-05T03:21:48;21.20;99.90
5258;DHT22;2651;51.594;9.928;2022-08-05T03:22:53;21.20;99.90
5258;DHT22;2651;51.594;9.928;2022-08-05T03:23:58;21.20;99.90
5258;DHT22;2651;51.594;9.928;2022-08-05T03:25:03;21.20;99.90
5258;DHT22;2651;51.594;9.928;2022-08-05T03:26:26;21.20;99.90
5258;DHT22;2651;51.594;9.928;2022-08-05T03:27:33;21.10;99.90
5258;DHT22;2651;51.594;9.928;2022-08-05T03:28:55;21.00;99.90
5258;DHT22;2651;51.594;9.928;2022-08-05T03:29:57;21.00;99.90
5258;DHT22;2651;51.594;9.928;2022-08-05T03:31:10;21.00;99.90
5258;DHT22;2651;51.594;9.928;2022-08-05T03:32:32;20.90;99.90
5258;DHT22;2651;51.594;9.928;2022-08-05T03:33:35;20.80;99.90
5258;DHT22;2651;51.594;9.928;2022-08-05T03:34:53;20.70;99.90
5258;DHT22;2651;51.594;9.928;2022-08-05T03:35:56;20.80;99.90
5258;DHT22;2651;51.594;9.928;2022-08-05T03:36:59;20.80;99.90
5258;DHT22;2651;51.594;9.928;2022-08-05T03:38:02;20.80;99.90
5258;DHT22;2651;51.594;9.928;2022-08-05T03:39:07;20.80;99.90
5258;DHT22;2651;51.594;9.928;2022-08-05T03:40:21;20.60;99.90
5258;DHT22;2651;51.594;9.928;2022-08-05T03:41:33;20.50;99.90
5258;DHT22;2651;51.594;9.928;2022-08-05T03:42:46;20.50;99.90
5258;DHT22;2651;51.594;9.928;2022-08-05T03:43:52;20.50;99.90
5258;DHT22;2651;51.594;9.928;2022-08-05T03:45:12;20.40;99.90
5258;DHT22;2651;51.594;9.928;2022-08-05T03:46:24;20.40;99.90
5258;DHT22;2651;51.594;9.928;2022-08-05T03:47:30;20.40;99.90
5258;DHT22;2651;51.594;9.928;2022-08-05T03:48:36;20.40;99.90
5258;DHT22;2651;51.594;9.928;2022-08-05T03:49:39;20.40;99.90
5258;DHT22;2651;51.594;9.928;2022-08-05T03:51:12;20.40;99.90
5258;DHT22;2651;51.594;9.928;2022-08-05T03:53:05;20.40;99.90
5258;DHT22;2651;51.594;9.928;2022-08-05T03:54:52;20.30;99.90
5258;DHT22;2651;51.594;9.928;2022-08-05T03:56:23;20.20;99.90
5258;DHT22;2651;51.594;9.928;2022-08-05T03:57:38;20.10;99.90
5258;DHT22;2651;51.594;9.928;2022-08-05T03:58:45;20.10;99.90
5258;DHT22;2651;51.594;9.928;2022-08-05T03:59:54;20.00;99.90
5258;DHT22;2651;51.594;9.928;2022-08-05T04:00:58;20.10;99.90
5258;DHT22;2651;51.594;9.928;2022-08-05T04:02:01;20.00;99.90
5258;DHT22;2651;51.594;9.928;2022-08-05T04:03:06;20.10;99.90
5258;DHT22;2651;51.594;9.928;2022-08-05T04:04:28;20.20;99.90
5258;DHT22;2651;51.594;9.928;2022-08-05T04:05:34;20.20;99.90
5258;DHT22;2651;51.594;9.928;2022-08-05T04:06:36;20.30;99.90
5258;DHT22;2651;51.594;9.928;2022-08-05T04:07:48;20.40;99.90
5258;DHT22;2651;51.594;9.928;2022-08-05T04:08:59;20.40;99.90
5258;DHT22;2651;51.594;9.928;2022-08-05T04:10:02;20.40;99.90
5258;DHT22;2651;51.594;9.928;2022-08-05T04:11:06;20.50;99.90
5258;DHT22;2651;51.594;9.928;2022-08-05T04:12:09;20.50;99.90
5258;DHT22;2651;51.594;9.928;2022-08-05T04:13:25;20.60;99.90
5258;DHT22;2651;51.594;9.928;2022-08-05T04:14:48;20.60;99.90
5258;DHT22;2651;51.594;9.928;2022-08-05T04:15:49;20.50;99.90
5258;DHT22;2651;51.594;9.928;2022-08-05T04:17:03;20.40;99.90
5258;DHT22;2651;51.594;9.928;2022-08-05T04:18:06;20.40;99.90
5258;DHT22;2651;51.594;9.928;2022-08-05T04:19:13;20.40;99.90
5258;DHT22;2651;51.594;9.928;2022-08-05T04:20:22;20.40;99.90
5258;DHT22;2651;51.594;9.928;2022-08-05T04:21:24;20.40;99.90
5258;DHT22;2651;51.594;9.928;2022-08-05T04:22:46;20.40;99.90
5258;DHT22;2651;51.594;9.928;2022-08-05T04:23:49;20.40;99.90
5258;DHT22;2651;51.594;9.928;2022-08-05T04:25:06;20.40;99.90
5258;DHT22;2651;51.594;9.928;2022-08-05T04:26:12;20.40;99.90
5258;DHT22;2651;51.594;9.928;2022-08-05T04:27:14;20.40;99.90
5258;DHT22;2651;51.594;9.928;2022-08-05T04:28:20;20.40;99.90
5258;DHT22;2651;51.594;9.928;2022-08-05T04:29:32;20.50;99.90
5258;DHT22;2651;51.594;9.928;2022-08-05T04:30:34;20.50;99.90
5258;DHT22;2651;51.594;9.928;2022-08-05T04:31:36;20.50;99.90
5258;DHT22;2651;51.594;9.928;2022-08-05T04:32:40;20.50;99.90
5258;DHT22;2651;51.594;9.928;2022-08-05T04:33:42;20.50;99.90
5258;DHT22;2651;51.594;9.928;2022-08-05T04:35:04;20.60;99.90
5258;DHT22;2651;51.594;9.928;2022-08-05T04:36:07;20.60;99.90
5258;DHT22;2651;51.594;9.928;2022-08-05T04:37:29;20.60;99.90
5258;DHT22;2651;51.594;9.928;2022-08-05T04:38:53;20.70;99.90
5258;DHT22;2651;51.594;9.928;2022-08-05T04:39:57;20.70;99.90
5258;DHT22;2651;51.594;9.928;2022-08-05T04:40:59;20.70;99.90
5258;DHT22;2651;51.594;9.928;2022-08-05T04:42:04;20.80;99.90
5258;DHT22;2651;51.594;9.928;2022-08-05T04:43:06;20.70;99.90
5258;DHT22;2651;51.594;9.928;2022-08-05T04:44:18;20.70;99.90
5258;DHT22;2651;51.594;9.928;2022-08-05T04:45:31;20.80;99.90
5258;DHT22;2651;51.594;9.928;2022-08-05T04:46:52;20.80;99.90
5258;DHT22;2651;51.594;9.928;2022-08-05T04:48:08;20.80;99.90
5258;DHT22;2651;51.594;9.928;2022-08-05T04:49:27;20.70;99.90
5258;DHT22;2651;51.594;9.928;2022-08-05T04:50:49;20.80;99.90
5258;DHT22;2651;51.594;9.928;2022-08-05T04:52:10;20.80;99.90
5258;DHT22;2651;51.594;9.928;2022-08-05T04:53:14;20.80;99.90
5258;DHT22;2651;51.594;9.928;2022-08-05T04:54:16;20.80;99.90
5258;DHT22;2651;51.594;9.928;2022-08-05T04:55:20;20.80;99.90
5258;DHT22;2651;51.594;9.928;2022-08-05T04:56:41;20.70;99.90
5258;DHT22;2651;51.594;9.928;2022-08-05T04:57:44;20.70;99.90
5258;DHT22;2651;51.594;9.928;2022-08-05T04:58:52;20.80;99.90
5258;DHT22;2651;51.594;9.928;2022-08-05T04:59:54;20.80;99.90
5258;DHT22;2651;51.594;9.928;2022-08-05T05:00:55;20.90;99.90
5258;DHT22;2651;51.594;9.928;2022-08-05T05:01:57;20.80;99.90
5258;DHT22;2651;51.594;9.928;2022-08-05T05:03:19;20.80;99.90
5258;DHT22;2651;51.594;9.928;2022-08-05T05:04:21;20.80;99.90
5258;DHT22;2651;51.594;9.928;2022-08-05T05:05:22;20.70;99.90
5258;DHT22;2651;51.594;9.928;2022-08-05T05:06:29;20.70;99.90
5258;DHT22;2651;51.594;9.928;2022-08-05T05:07:49;20.60;99.90
5258;DHT22;2651;51.594;9.928;2022-08-05T05:08:57;20.50;99.90
5258;DHT22;2651;51.594;9.928;2022-08-05T05:10:01;20.50;99.90
5258;DHT22;2651;51.594;9.928;2022-08-05T05:11:06;20.50;99.90
5258;DHT22;2651;51.594;9.928;2022-08-05T05:12:08;20.50;99.90
5258;DHT22;2651;51.594;9.928;2022-08-05T05:13:14;20.50;99.90
5258;DHT22;2651;51.594;9.928;2022-08-05T05:14:17;20.50;99.90
5258;DHT22;2651;51.594;9.928;2022-08-05T05:15:28;20.50;99.90
5258;DHT22;2651;51.594;9.928;2022-08-05T05:16:50;20.40;99.90
5258;DHT22;2651;51.594;9.928;2022-08-05T05:17:54;20.30;99.90
5258;DHT22;2651;51.594;9.928;2022-08-05T05:18:58;20.30;99.90
5258;DHT22;2651;51.594;9.928;2022-08-05T05:20:20;20.20;99.90
5258;DHT22;2651;51.594;9.928;2022-08-05T05:21:28;20.10;99.90
5258;DHT22;2651;51.594;9.928;2022-08-05T05:22:33;20.10;99.90
5258;DHT22;2651;51.594;9.928;2022-08-05T05:23:41;20.20;99.90
5258;DHT22;2651;51.594;9.928;2022-08-05T05:25:03;20.20;99.90
5258;DHT22;2651;51.594;9.928;2022-08-05T05:26:18;20.30;99.90
5258;DHT22;2651;51.594;9.928;2022-08-05T05:27:30;20.30;99.90
5258;DHT22;2651;51.594;9.928;2022-08-05T05:28:45;20.40;99.90
5258;DHT22;2651;51.594;9.928;2022-08-05T05:29:47;20.40;99.90
5258;DHT22;2651;51.594;9.928;2022-08-05T05:31:05;20.50;99.90
5258;DHT22;2651;51.594;9.928;2022-08-05T05:32:09;20.50;99.90
5258;DHT22;2651;51.594;9.928;2022-08-05T05:33:16;20.50;99.90
5258;DHT22;2651;51.594;9.928;2022-08-05T05:34:23;20.60;99.90
5258;DHT22;2651;51.594;9.928;2022-08-05T05:35:29;20.60;99.90
5258;DHT22;2651;51.594;9.928;2022-08-05T05:36:38;20.60;99.90
5258;DHT22;2651;51.594;9.928;2022-08-05T05:37:50;20.70;99.90
5258;DHT22;2651;51.594;9.928;2022-08-05T05:39:02;20.70;99.90
5258;DHT22;2651;51.594;9.928;2022-08-05T05:40:05;20.70;99.90
5258;DHT22;2651;51.594;9.928;2022-08-05T05:41:08;20.80;99.90
5258;DHT22;2651;51.594;9.928;2022-08-05T05:42:12;20.80;99.90
5258;DHT22;2651;51.594;9.928;2022-08-05T05:43:14;20.80;99.90
5258;DHT22;2651;51.594;9.928;2022-08-05T05:44:28;20.80;99.90
5258;DHT22;2651;51.594;9.928;2022-08-05T05:45:37;20.90;99.90
5258;DHT22;2651;51.594;9.928;2022-08-05T05:46:48;20.80;99.90
5258;DHT22;2651;51.594;9.928;2022-08-05T05:47:52;20.80;99.90
5258;DHT22;2651;51.594;9.928;2022-08-05T05:49:07;20.80;99.90
5258;DHT22;2651;51.594;9.928;2022-08-05T05:50:23;20.90;99.90
5258;DHT22;2651;51.594;9.928;2022-08-05T05:51:26;20.90;99.90
5258;DHT22;2651;51.594;9.928;2022-08-05T05:52:28;21.00;99.90
5258;DHT22;2651;51.594;9.928;2022-08-05T05:53:38;21.00;99.90
5258;DHT22;2651;51.594;9.928;2022-08-05T05:55:04;21.10;99.90
5258;DHT22;2651;51.594;9.928;2022-08-05T05:56:14;21.20;99.90
5258;DHT22;2651;51.594;9.928;2022-08-05T05:57:26;21.20;99.90
5258;DHT22;2651;51.594;9.928;2022-08-05T05:58:48;21.30;99.90
5258;DHT22;2651;51.594;9.928;2022-08-05T05:59:50;21.30;99.90
5258;DHT22;2651;51.594;9.928;2022-08-05T06:00:53;21.30;99.90
5258;DHT22;2651;51.594;9.928;2022-08-05T06:01:54;21.30;99.90
5258;DHT22;2651;51.594;9.928;2022-08-05T06:03:00;21.30;99.90
5258;DHT22;2651;51.594;9.928;2022-08-05T06:04:02;21.30;99.90
5258;DHT22;2651;51.594;9.928;2022-08-05T06:05:07;21.40;99.90
5258;DHT22;2651;51.594;9.928;2022-08-05T06:06:17;21.30;99.90
5258;DHT22;2651;51.594;9.928;2022-08-05T06:07:18;21.40;99.90
5258;DHT22;2651;51.594;9.928;2022-08-05T06:08:23;21.40;99.90
5258;DHT22;2651;51.594;9.928;2022-08-05T06:09:33;21.50;99.90
5258;DHT22;2651;51.594;9.928;2022-08-05T06:10:55;21.60;99.90
5258;DHT22;2651;51.594;9.928;2022-08-05T06:11:56;21.60;99.90
5258;DHT22;2651;51.594;9.928;2022-08-05T06:13:02;21.60;99.90
5258;DHT22;2651;51.594;9.928;2022-08-05T06:14:06;21.60;99.90
5258;DHT22;2651;51.594;9.928;2022-08-05T06:15:08;21.60;99.90
5258;DHT22;2651;51.594;9.928;2022-08-05T06:16:24;21.60;99.90
5258;DHT22;2651;51.594;9.928;2022-08-05T06:17:32;21.50;99.90
5258;DHT22;2651;51.594;9.928;2022-08-05T06:18:54;21.60;99.90
5258;DHT22;2651;51.594;9.928;2022-08-05T06:19:55;21.60;99.90
5258;DHT22;2651;51.594;9.928;2022-08-05T06:21:00;21.60;99.90
5258;DHT22;2651;51.594;9.928;2022-08-05T06:22:03;21.60;99.90
5258;DHT22;2651;51.594;9.928;2022-08-05T06:23:07;21.70;99.90
5258;DHT22;2651;51.594;9.928;2022-08-05T06:24:08;21.80;99.90
5258;DHT22;2651;51.594;9.928;2022-08-05T06:25:13;21.60;99.90
5258;DHT22;2651;51.594;9.928;2022-08-05T06:26:35;21.70;99.90
5258;DHT22;2651;51.594;9.928;2022-08-05T06:27:36;21.60;99.90
5258;DHT22;2651;51.594;9.928;2022-08-05T06:28:58;21.60;99.90
5258;DHT22;2651;51.594;9.928;2022-08-05T06:30:04;21.50;99.90
5258;DHT22;2651;51.594;9.928;2022-08-05T06:31:20;21.40;99.90
5258;DHT22;2651;51.594;9.928;2022-08-05T06:32:31;21.30;99.90
5258;DHT22;2651;51.594;9.928;2022-08-05T06:33:33;21.20;99.90
5258;DHT22;2651;51.594;9.928;2022-08-05T06:34:55;21.10;99.90
5258;DHT22;2651;51.594;9.928;2022-08-05T06:35:58;21.30;99.90
5258;DHT22;2651;51.594;9.928;2022-08-05T06:37:10;21.20;99.90
5258;DHT22;2651;51.594;9.928;2022-08-05T06:38:13;21.10;99.90
5258;DHT22;2651;51.594;9.928;2022-08-05T06:39:16;21.20;99.90
5258;DHT22;2651;51.594;9.928;2022-08-05T06:40:22;21.20;99.90
5258;DHT22;2651;51.594;9.928;2022-08-05T06:41:33;21.20;99.90
5258;DHT22;2651;51.594;9.928;2022-08-05T06:42:41;21.20;99.90
5258;DHT22;2651;51.594;9.928;2022-08-05T06:43:42;21.20;99.90
5258;DHT22;2651;51.594;9.928;2022-08-05T06:45:00;21.20;99.90
5258;DHT22;2651;51.594;9.928;2022-08-05T06:46:09;21.10;99.90
5258;DHT22;2651;51.594;9.928;2022-08-05T06:47:10;21.10;99.90
5258;DHT22;2651;51.594;9.928;2022-08-05T06:48:33;21.10;99.90
5258;DHT22;2651;51.594;9.928;2022-08-05T06:49:55;21.20;99.90
5258;DHT22;2651;51.594;9.928;2022-08-05T06:51:03;21.10;99.90
5258;DHT22;2651;51.594;9.928;2022-08-05T06:52:10;20.90;99.90
5258;DHT22;2651;51.594;9.928;2022-08-05T06:53:32;20.90;99.90
5258;DHT22;2651;51.594;9.928;2022-08-05T06:54:39;20.90;99.90
5258;DHT22;2651;51.594;9.928;2022-08-05T06:55:41;20.80;99.90
5258;DHT22;2651;51.594;9.928;2022-08-05T06:56:46;20.80;99.90
5258;DHT22;2651;51.594;9.928;2022-08-05T06:58:08;20.70;99.90
5258;DHT22;2651;51.594;9.928;2022-08-05T06:59:30;20.80;99.90
5258;DHT22;2651;51.594;9.928;2022-08-05T07:00:42;20.90;99.90
5258;DHT22;2651;51.594;9.928;2022-08-05T07:01:45;21.00;99.90
5258;DHT22;2651;51.594;9.928;2022-08-05T07:02:53;21.00;99.90
5258;DHT22;2651;51.594;9.928;2022-08-05T07:03:55;21.10;99.90
5258;DHT22;2651;51.594;9.928;2022-08-05T07:04:56;21.10;99.90
5258;DHT22;2651;51.594;9.928;2022-08-05T07:05:58;21.00;99.90
5258;DHT22;2651;51.594;9.928;2022-08-05T07:07:06;21.00;99.90
5258;DHT22;2651;51.594;9.928;2022-08-05T07:08:08;21.00;99.90
5258;DHT22;2651;51.594;9.928;2022-08-05T07:09:11;21.00;99.90
5258;DHT22;2651;51.594;9.928;2022-08-05T07:10:14;21.10;99.90
5258;DHT22;2651;51.594;9.928;2022-08-05T07:11:17;21.20;99.90
5258;DHT22;2651;51.594;9.928;2022-08-05T07:12:23;21.20;99.90
5258;DHT22;2651;51.594;9.928;2022-08-05T07:13:49;21.30;99.90
5258;DHT22;2651;51.594;9.928;2022-08-05T07:15:21;21.40;99.90
5258;DHT22;2651;51.594;9.928;2022-08-05T07:17:01;21.60;99.90
5258;DHT22;2651;51.594;9.928;2022-08-05T07:18:23;21.90;99.90
5258;DHT22;2651;51.594;9.928;2022-08-05T07:19:31;22.00;99.90
5258;DHT22;2651;51.594;9.928;2022-08-05T07:20:53;22.00;99.90
5258;DHT22;2651;51.594;9.928;2022-08-05T07:21:54;22.00;99.90
5258;DHT22;2651;51.594;9.928;2022-08-05T07:23:02;21.90;99.90
5258;DHT22;2651;51.594;9.928;2022-08-05T07:24:05;21.90;99.90
5258;DHT22;2651;51.594;9.928;2022-08-05T07:25:11;22.00;99.90
5258;DHT22;2651;51.594;9.928;2022-08-05T07:26:24;22.10;99.90
5258;DHT22;2651;51.594;9.928;2022-08-05T07:27:27;22.10;99.90
5258;DHT22;2651;51.594;9.928;2022-08-05T07:28:49;22.20;99.90
5258;DHT22;2651;51.594;9.928;2022-08-05T07:29:56;22.30;99.90
5258;DHT22;2651;51.594;9.928;2022-08-05T07:31:18;22.20;99.90
5258;DHT22;2651;51.594;9.928;2022-08-05T07:32:40;22.20;99.90
5258;DHT22;2651;51.594;9.928;2022-08-05T07:33:42;22.10;99.90
5258;DHT22;2651;51.594;9.928;2022-08-05T07:34:44;22.10;99.90
5258;DHT22;2651;51.594;9.928;2022-08-05T07:35:46;22.10;99.90
5258;DHT22;2651;51.594;9.928;2022-08-05T07:37:08;22.20;99.90
5258;DHT22;2651;51.594;9.928;2022-08-05T07:38:16;22.40;99.90
5258;DHT22;2651;51.594;9.928;2022-08-05T07:39:35;22.50;99.90
5258;DHT22;2651;51.594;9.928;2022-08-05T07:40:57;22.40;99.90
5258;DHT22;2651;51.594;9.928;2022-08-05T07:42:05;22.40;99.90
5258;DHT22;2651;51.594;9.928;2022-08-05T07:43:15;22.30;99.90
5258;DHT22;2651;51.594;9.928;2022-08-05T07:44:21;22.40;99.90
5258;DHT22;2651;51.594;9.928;2022-08-05T07:45:23;22.50;99.90
5258;DHT22;2651;51.594;9.928;2022-08-05T07:46:45;22.50;99.90
5258;DHT22;2651;51.594;9.928;2022-08-05T07:47:50;22.60;99.90